sensor_id;sensor_type;location;lat;lon;timestamp;temperature;humidity
31967;DHT22;18496;52.042;6.812;2022-09-30T00:00:42;12.40;99.70
31967;DHT22;18496;52.042;6.812;2022-09-30T00:02:45;12.40;99.70
31967;DHT22;18496;52.042;6.812;2022-09-30T00:04:49;12.40;99.70
31967;DHT22;18496;52.042;6.812;2022-09-30T00:06:53;12.40;99.50
31967;DHT22;18496;52.042;6.812;2022-09-30T00:08:56;12.40;99.40
31967;DHT22;18496;52.042;6.812;2022-09-30T00:11:01;12.40;99.50
31967;DHT22;18496;52.042;6.812;2022-09-30T00:13:06;12.40;99.30
31967;DHT22;18496;52.042;6.812;2022-09-30T00:15:10;12.30;99.40
31967;DHT22;18496;52.042;6.812;2022-09-30T00:17:13;12.30;99.30
31967;DHT22;18496;52.042;6.812;2022-09-30T00:19:17;12.30;99.20
31967;DHT22;18496;52.042;6.812;2022-09-30T00:21:20;12.30;99.00
31967;DHT22;18496;52.042;6.812;2022-09-30T00:23:24;12.30;98.80
31967;DHT22;18496;52.042;6.812;2022-09-30T00:25:28;12.30;98.90
31967;DHT22;18496;52.042;6.812;2022-09-30T00:27:31;12.30;98.80
31967;DHT22;18496;52.042;6.812;2022-09-30T00:29:35;12.30;98.90
31967;DHT22;18496;52.042;6.812;2022-09-30T00:31:39;12.20;98.90
31967;DHT22;18496;52.042;6.812;2022-09-30T00:33:42;12.20;98.90
31967;DHT22;18496;52.042;6.812;2022-09-30T00:35:46;12.20;98.50
31967;DHT22;18496;52.042;6.812;2022-09-30T00:37:49;12.20;98.70
31967;DHT22;18496;52.042;6.812;2022-09-30T00:39:53;12.30;99.00
31967;DHT22;18496;52.042;6.812;2022-09-30T00:41:58;12.20;98.70
31967;DHT22;18496;52.042;6.812;2022-09-30T00:44:37;12.10;98.80
31967;DHT22;18496;52.042;6.812;2022-09-30T00:46:33;12.00;98.80
31967;DHT22;18496;52.042;6.812;2022-09-30T00:48:38;12.00;98.90
31967;DHT22;18496;52.042;6.812;2022-09-30T00:50:46;12.10;98.80
31967;DHT22;18496;52.042;6.812;2022-09-30T00:52:54;12.00;99.00
31967;DHT22;18496;52.042;6.812;2022-09-30T00:54:58;12.00;99.10
31967;DHT22;18496;52.042;6.812;2022-09-30T00:57:03;12.00;99.30
31967;DHT22;18496;52.042;6.812;2022-09-30T01:01:13;11.90;99.00
31967;DHT22;18496;52.042;6.812;2022-09-30T01:03:18;12.00;99.10
31967;DHT22;18496;52.042;6.812;2022-09-30T01:05:22;11.90;99.20
31967;DHT22;18496;52.042;6.812;2022-09-30T01:07:27;11.90;99.30
31967;DHT22;18496;52.042;6.812;2022-09-30T01:09:35;11.90;99.40
31967;DHT22;18496;52.042;6.812;2022-09-30T01:11:39;11.80;99.60
31967;DHT22;18496;52.042;6.812;2022-09-30T01:13:43;11.80;99.50
31967;DHT22;18496;52.042;6.812;2022-09-30T01:16:35;11.80;99.60
31967;DHT22;18496;52.042;6.812;2022-09-30T01:18:16;11.80;99.50
31967;DHT22;18496;52.042;6.812;2022-09-30T01:22:36;11.80;99.10
31967;DHT22;18496;52.042;6.812;2022-09-30T01:24:59;11.80;99.60
31967;DHT22;18496;52.042;6.812;2022-09-30T01:29:31;11.70;99.70
31967;DHT22;18496;52.042;6.812;2022-09-30T01:34:13;11.60;99.70
31967;DHT22;18496;52.042;6.812;2022-09-30T01:38:27;11.70;99.70
31967;DHT22;18496;52.042;6.812;2022-09-30T01:40:48;11.70;99.40
31967;DHT22;18496;52.042;6.812;2022-09-30T01:42:57;11.60;99.50
31967;DHT22;18496;52.042;6.812;2022-09-30T01:47:11;11.60;99.40
31967;DHT22;18496;52.042;6.812;2022-09-30T01:51:31;11.60;99.60
31967;DHT22;18496;52.042;6.812;2022-09-30T01:53:48;11.60;99.50
31967;DHT22;18496;52.042;6.812;2022-09-30T01:56:03;11.60;99.40
31967;DHT22;18496;52.042;6.812;2022-09-30T01:58:13;11.60;99.40
31967;DHT22;18496;52.042;6.812;2022-09-30T02:00:18;11.50;99.60
31967;DHT22;18496;52.042;6.812;2022-09-30T02:02:23;11.60;99.60
31967;DHT22;18496;52.042;6.812;2022-09-30T02:04:33;11.60;99.30
31967;DHT22;18496;52.042;6.812;2022-09-30T02:06:39;11.60;99.60
31967;DHT22;18496;52.042;6.812;2022-09-30T02:08:46;11.60;99.50
31967;DHT22;18496;52.042;6.812;2022-09-30T02:10:56;11.50;99.70
31967;DHT22;18496;52.042;6.812;2022-09-30T02:13:03;11.40;99.80
31967;DHT22;18496;52.042;6.812;2022-09-30T02:15:08;11.50;99.90
31967;DHT22;18496;52.042;6.812;2022-09-30T02:17:17;11.50;99.90
31967;DHT22;18496;52.042;6.812;2022-09-30T02:21:32;11.40;99.90
31967;DHT22;18496;52.042;6.812;2022-09-30T02:23:38;11.40;99.90
31967;DHT22;18496;52.042;6.812;2022-09-30T02:25:46;11.40;99.80
31967;DHT22;18496;52.042;6.812;2022-09-30T02:27:51;11.40;99.70
31967;DHT22;18496;52.042;6.812;2022-09-30T02:29:58;11.40;99.90
31967;DHT22;18496;52.042;6.812;2022-09-30T02:32:09;11.30;99.80
31967;DHT22;18496;52.042;6.812;2022-09-30T02:34:22;11.20;99.90
31967;DHT22;18496;52.042;6.812;2022-09-30T02:36:28;11.20;99.90
31967;DHT22;18496;52.042;6.812;2022-09-30T02:38:34;11.20;99.90
31967;DHT22;18496;52.042;6.812;2022-09-30T02:40:44;11.20;99.90
31967;DHT22;18496;52.042;6.812;2022-09-30T02:42:50;11.20;99.90
31967;DHT22;18496;52.042;6.812;2022-09-30T02:45:04;11.10;99.90
31967;DHT22;18496;52.042;6.812;2022-09-30T02:47:25;11.10;99.90
31967;DHT22;18496;52.042;6.812;2022-09-30T02:49:31;11.10;99.90
31967;DHT22;18496;52.042;6.812;2022-09-30T02:56:30;11.20;99.90
31967;DHT22;18496;52.042;6.812;2022-09-30T02:58:41;11.10;99.80
31967;DHT22;18496;52.042;6.812;2022-09-30T03:00:46;11.30;99.70
31967;DHT22;18496;52.042;6.812;2022-09-30T03:02:54;11.20;99.60
31967;DHT22;18496;52.042;6.812;2022-09-30T03:04:58;11.20;99.80
31967;DHT22;18496;52.042;6.812;2022-09-30T03:07:02;11.20;99.90
31967;DHT22;18496;52.042;6.812;2022-09-30T03:09:06;11.20;99.90
31967;DHT22;18496;52.042;6.812;2022-09-30T03:11:16;11.20;99.90
31967;DHT22;18496;52.042;6.812;2022-09-30T03:15:32;11.20;99.90
31967;DHT22;18496;52.042;6.812;2022-09-30T03:17:54;11.10;99.90
31967;DHT22;18496;52.042;6.812;2022-09-30T03:33:32;11.10;99.70
31967;DHT22;18496;52.042;6.812;2022-09-30T03:42:53;10.90;99.90
31967;DHT22;18496;52.042;6.812;2022-09-30T03:45:06;10.90;99.90
31967;DHT22;18496;52.042;6.812;2022-09-30T03:47:11;10.80;99.90
31967;DHT22;18496;52.042;6.812;2022-09-30T03:49:19;10.80;99.90
31967;DHT22;18496;52.042;6.812;2022-09-30T03:51:24;10.70;99.90
31967;DHT22;18496;52.042;6.812;2022-09-30T03:53:28;10.80;99.90
31967;DHT22;18496;52.042;6.812;2022-09-30T03:55:31;10.80;99.90
31967;DHT22;18496;52.042;6.812;2022-09-30T03:57:35;10.80;99.90
31967;DHT22;18496;52.042;6.812;2022-09-30T03:59:39;10.80;99.90
31967;DHT22;18496;52.042;6.812;2022-09-30T04:01:43;10.80;99.90
31967;DHT22;18496;52.042;6.812;2022-09-30T04:03:47;10.80;99.90
31967;DHT22;18496;52.042;6.812;2022-09-30T04:05:51;10.80;99.90
31967;DHT22;18496;52.042;6.812;2022-09-30T04:07:54;10.80;99.90
31967;DHT22;18496;52.042;6.812;2022-09-30T04:09:58;10.70;99.90
31967;DHT22;18496;52.042;6.812;2022-09-30T04:12:01;10.70;99.90
31967;DHT22;18496;52.042;6.812;2022-09-30T04:14:05;10.70;99.90
31967;DHT22;18496;52.042;6.812;2022-09-30T04:16:09;10.60;99.90
31967;DHT22;18496;52.042;6.812;2022-09-30T04:18:12;10.60;99.90
31967;DHT22;18496;52.042;6.812;2022-09-30T04:20:16;10.60;99.90
31967;DHT22;18496;52.042;6.812;2022-09-30T04:22:19;10.60;99.90
31967;DHT22;18496;52.042;6.812;2022-09-30T04:24:23;10.60;99.90
31967;DHT22;18496;52.042;6.812;2022-09-30T04:26:27;10.50;99.90
31967;DHT22;18496;52.042;6.812;2022-09-30T04:28:31;10.50;99.90
31967;DHT22;18496;52.042;6.812;2022-09-30T04:30:36;10.50;99.90
31967;DHT22;18496;52.042;6.812;2022-09-30T04:32:43;10.50;99.90
31967;DHT22;18496;52.042;6.812;2022-09-30T04:34:47;10.50;99.90
31967;DHT22;18496;52.042;6.812;2022-09-30T04:36:51;10.50;99.90
31967;DHT22;18496;52.042;6.812;2022-09-30T04:38:54;10.60;99.80
31967;DHT22;18496;52.042;6.812;2022-09-30T04:41:01;10.50;99.90
31967;DHT22;18496;52.042;6.812;2022-09-30T04:43:04;10.40;99.90
31967;DHT22;18496;52.042;6.812;2022-09-30T04:45:12;10.40;99.90
31967;DHT22;18496;52.042;6.812;2022-09-30T04:47:15;10.40;99.90
31967;DHT22;18496;52.042;6.812;2022-09-30T04:49:19;10.40;99.90
31967;DHT22;18496;52.042;6.812;2022-09-30T04:51:22;10.40;99.90
31967;DHT22;18496;52.042;6.812;2022-09-30T04:53:26;10.30;99.90
31967;DHT22;18496;52.042;6.812;2022-09-30T04:55:30;10.30;99.90
31967;DHT22;18496;52.042;6.812;2022-09-30T04:57:33;10.20;99.90
31967;DHT22;18496;52.042;6.812;2022-09-30T04:59:37;10.20;99.90
31967;DHT22;18496;52.042;6.812;2022-09-30T05:01:41;10.20;99.90
31967;DHT22;18496;52.042;6.812;2022-09-30T05:03:45;10.20;99.90
31967;DHT22;18496;52.042;6.812;2022-09-30T05:05:49;10.10;99.90
31967;DHT22;18496;52.042;6.812;2022-09-30T05:08:03;10.10;99.90
31967;DHT22;18496;52.042;6.812;2022-09-30T05:10:07;10.10;99.90
31967;DHT22;18496;52.042;6.812;2022-09-30T05:12:10;10.10;99.90
31967;DHT22;18496;52.042;6.812;2022-09-30T05:14:16;10.10;99.90
31967;DHT22;18496;52.042;6.812;2022-09-30T05:16:20;10.10;99.90
31967;DHT22;18496;52.042;6.812;2022-09-30T05:18:24;10.10;99.90
31967;DHT22;18496;52.042;6.812;2022-09-30T05:20:28;10.10;99.90
31967;DHT22;18496;52.042;6.812;2022-09-30T05:22:32;10.10;99.90
31967;DHT22;18496;52.042;6.812;2022-09-30T05:24:35;10.10;99.90
31967;DHT22;18496;52.042;6.812;2022-09-30T05:26:39;10.10;99.90
31967;DHT22;18496;52.042;6.812;2022-09-30T05:28:43;10.10;99.90
31967;DHT22;18496;52.042;6.812;2022-09-30T05:30:46;10.10;99.90
31967;DHT22;18496;52.042;6.812;2022-09-30T05:32:52;10.10;99.90
31967;DHT22;18496;52.042;6.812;2022-09-30T05:34:55;10.10;99.90
31967;DHT22;18496;52.042;6.812;2022-09-30T05:36:59;10.20;99.90
31967;DHT22;18496;52.042;6.812;2022-09-30T05:39:03;10.20;99.90
31967;DHT22;18496;52.042;6.812;2022-09-30T05:41:07;10.10;99.90
31967;DHT22;18496;52.042;6.812;2022-09-30T05:43:11;10.10;99.90
31967;DHT22;18496;52.042;6.812;2022-09-30T05:45:14;10.10;99.90
31967;DHT22;18496;52.042;6.812;2022-09-30T05:47:18;10.20;99.90
31967;DHT22;18496;52.042;6.812;2022-09-30T05:49:21;10.20;99.90
31967;DHT22;18496;52.042;6.812;2022-09-30T05:51:25;10.20;99.90
31967;DHT22;18496;52.042;6.812;2022-09-30T05:53:29;10.20;99.90
31967;DHT22;18496;52.042;6.812;2022-09-30T05:55:34;10.30;99.90
31967;DHT22;18496;52.042;6.812;2022-09-30T05:57:37;10.30;99.90
31967;DHT22;18496;52.042;6.812;2022-09-30T05:59:42;10.40;99.90
31967;DHT22;18496;52.042;6.812;2022-09-30T06:01:48;10.50;99.90
31967;DHT22;18496;52.042;6.812;2022-09-30T06:03:52;10.60;99.90
31967;DHT22;18496;52.042;6.812;2022-09-30T06:05:55;10.60;99.90
31967;DHT22;18496;52.042;6.812;2022-09-30T06:08:00;10.60;99.90
31967;DHT22;18496;52.042;6.812;2022-09-30T06:10:04;10.70;99.90
31967;DHT22;18496;52.042;6.812;2022-09-30T06:12:09;10.70;99.90
31967;DHT22;18496;52.042;6.812;2022-09-30T06:14:13;10.70;99.90
31967;DHT22;18496;52.042;6.812;2022-09-30T06:16:17;10.70;99.90
31967;DHT22;18496;52.042;6.812;2022-09-30T06:18:20;10.70;99.90
31967;DHT22;18496;52.042;6.812;2022-09-30T06:20:24;10.60;99.90
31967;DHT22;18496;52.042;6.812;2022-09-30T06:22:27;10.60;99.90
31967;DHT22;18496;52.042;6.812;2022-09-30T06:24:31;10.60;99.90
31967;DHT22;18496;52.042;6.812;2022-09-30T06:26:34;10.50;99.90
31967;DHT22;18496;52.042;6.812;2022-09-30T06:28:38;10.60;99.90
31967;DHT22;18496;52.042;6.812;2022-09-30T06:30:45;10.60;99.90
31967;DHT22;18496;52.042;6.812;2022-09-30T06:32:48;10.70;99.90
31967;DHT22;18496;52.042;6.812;2022-09-30T06:34:52;10.70;99.90
31967;DHT22;18496;52.042;6.812;2022-09-30T06:36:58;10.70;99.90
31967;DHT22;18496;52.042;6.812;2022-09-30T06:39:02;10.80;99.90
31967;DHT22;18496;52.042;6.812;2022-09-30T06:41:06;10.80;99.90
31967;DHT22;18496;52.042;6.812;2022-09-30T06:43:10;10.80;99.90
31967;DHT22;18496;52.042;6.812;2022-09-30T06:45:14;10.80;99.90
31967;DHT22;18496;52.042;6.812;2022-09-30T06:47:17;10.70;99.90
31967;DHT22;18496;52.042;6.812;2022-09-30T06:49:21;10.80;99.90
31967;DHT22;18496;52.042;6.812;2022-09-30T06:51:24;10.80;99.90
31967;DHT22;18496;52.042;6.812;2022-09-30T06:53:28;10.90;99.90
31967;DHT22;18496;52.042;6.812;2022-09-30T06:55:32;10.90;99.90
31967;DHT22;18496;52.042;6.812;2022-09-30T06:57:41;10.90;99.90
31967;DHT22;18496;52.042;6.812;2022-09-30T06:59:46;11.00;99.90
31967;DHT22;18496;52.042;6.812;2022-09-30T07:01:49;11.00;99.90
31967;DHT22;18496;52.042;6.812;2022-09-30T07:03:53;11.10;99.90
31967;DHT22;18496;52.042;6.812;2022-09-30T07:06:01;11.10;99.90
31967;DHT22;18496;52.042;6.812;2022-09-30T07:08:05;11.20;99.90
31967;DHT22;18496;52.042;6.812;2022-09-30T07:10:09;11.20;99.90
31967;DHT22;18496;52.042;6.812;2022-09-30T07:12:13;11.20;99.90
31967;DHT22;18496;52.042;6.812;2022-09-30T07:14:16;11.20;99.90
31967;DHT22;18496;52.042;6.812;2022-09-30T07:16:20;11.20;99.90
31967;DHT22;18496;52.042;6.812;2022-09-30T07:18:24;11.20;99.90
31967;DHT22;18496;52.042;6.812;2022-09-30T07:20:33;11.30;99.90
31967;DHT22;18496;52.042;6.812;2022-09-30T07:22:37;11.30;99.90
31967;DHT22;18496;52.042;6.812;2022-09-30T07:24:40;11.40;99.90
31967;DHT22;18496;52.042;6.812;2022-09-30T07:26:44;11.40;99.90
31967;DHT22;18496;52.042;6.812;2022-09-30T07:28:48;11.50;99.90
31967;DHT22;18496;52.042;6.812;2022-09-30T07:30:51;11.50;99.90
31967;DHT22;18496;52.042;6.812;2022-09-30T07:32:55;11.60;99.90
31967;DHT22;18496;52.042;6.812;2022-09-30T07:34:58;11.60;99.90
31967;DHT22;18496;52.042;6.812;2022-09-30T07:37:02;11.70;99.90
31967;DHT22;18496;52.042;6.812;2022-09-30T07:39:07;11.70;99.90
31967;DHT22;18496;52.042;6.812;2022-09-30T07:41:12;11.70;99.90
31967;DHT22;18496;52.042;6.812;2022-09-30T07:43:16;11.70;99.90
31967;DHT22;18496;52.042;6.812;2022-09-30T07:45:21;11.70;99.90
31967;DHT22;18496;52.042;6.812;2022-09-30T07:47:24;11.70;99.90
31967;DHT22;18496;52.042;6.812;2022-09-30T07:49:28;11.80;99.90
31967;DHT22;18496;52.042;6.812;2022-09-30T07:51:37;11.80;99.90
31967;DHT22;18496;52.042;6.812;2022-09-30T07:53:43;11.90;99.90
31967;DHT22;18496;52.042;6.812;2022-09-30T07:55:47;11.90;99.90
31967;DHT22;18496;52.042;6.812;2022-09-30T07:57:50;11.90;99.90
31967;DHT22;18496;52.042;6.812;2022-09-30T07:59:54;12.00;99.90
31967;DHT22;18496;52.042;6.812;2022-09-30T08:01:58;12.00;99.90
31967;DHT22;18496;52.042;6.812;2022-09-30T08:04:02;12.10;99.90
31967;DHT22;18496;52.042;6.812;2022-09-30T08:06:07;12.10;99.90
31967;DHT22;18496;52.042;6.812;2022-09-30T08:08:14;12.20;99.90
31967;DHT22;18496;52.042;6.812;2022-09-30T08:10:19;12.20;99.90
31967;DHT22;18496;52.042;6.812;2022-09-30T08:12:22;12.20;99.90
31967;DHT22;18496;52.042;6.812;2022-09-30T08:14:26;12.30;99.90
31967;DHT22;18496;52.042;6.812;2022-09-30T08:16:30;12.30;99.90
31967;DHT22;18496;52.042;6.812;2022-09-30T08:18:33;12.30;99.90
31967;DHT22;18496;52.042;6.812;2022-09-30T08:20:37;12.40;99.90
31967;DHT22;18496;52.042;6.812;2022-09-30T08:22:40;12.40;99.90
31967;DHT22;18496;52.042;6.812;2022-09-30T08:24:53;12.40;99.90
31967;DHT22;18496;52.042;6.812;2022-09-30T08:26:56;12.40;99.90
31967;DHT22;18496;52.042;6.812;2022-09-30T08:29:00;12.50;99.90
31967;DHT22;18496;52.042;6.812;2022-09-30T08:33:07;12.50;99.90
31967;DHT22;18496;52.042;6.812;2022-09-30T08:35:11;12.60;99.90
31967;DHT22;18496;52.042;6.812;2022-09-30T08:37:14;12.60;99.90
31967;DHT22;18496;52.042;6.812;2022-09-30T08:39:18;12.70;99.90
31967;DHT22;18496;52.042;6.812;2022-09-30T08:41:34;12.80;99.90
31967;DHT22;18496;52.042;6.812;2022-09-30T08:46:10;12.90;99.90
31967;DHT22;18496;52.042;6.812;2022-09-30T08:50:26;13.00;99.90
31967;DHT22;18496;52.042;6.812;2022-09-30T08:52:33;13.10;99.90
31967;DHT22;18496;52.042;6.812;2022-09-30T08:54:37;13.10;99.90
31967;DHT22;18496;52.042;6.812;2022-09-30T08:56:44;13.10;99.90
31967;DHT22;18496;52.042;6.812;2022-09-30T08:58:48;13.20;99.90
31967;DHT22;18496;52.042;6.812;2022-09-30T09:00:54;13.30;99.90
31967;DHT22;18496;52.042;6.812;2022-09-30T09:02:59;13.30;99.90
31967;DHT22;18496;52.042;6.812;2022-09-30T09:05:05;13.40;99.90
31967;DHT22;18496;52.042;6.812;2022-09-30T09:07:45;13.40;99.90
31967;DHT22;18496;52.042;6.812;2022-09-30T09:09:43;13.50;99.90
31967;DHT22;18496;52.042;6.812;2022-09-30T09:14:28;13.60;99.90
31967;DHT22;18496;52.042;6.812;2022-09-30T09:16:53;13.70;99.90
31967;DHT22;18496;52.042;6.812;2022-09-30T09:19:07;13.70;99.90
31967;DHT22;18496;52.042;6.812;2022-09-30T09:21:20;13.80;99.90
31967;DHT22;18496;52.042;6.812;2022-09-30T09:23:25;13.90;99.90
31967;DHT22;18496;52.042;6.812;2022-09-30T09:25:30;13.90;99.90
31967;DHT22;18496;52.042;6.812;2022-09-30T09:29:40;14.00;99.90
31967;DHT22;18496;52.042;6.812;2022-09-30T09:31:46;14.10;99.90
31967;DHT22;18496;52.042;6.812;2022-09-30T09:33:50;14.10;99.90
31967;DHT22;18496;52.042;6.812;2022-09-30T09:36:13;14.20;99.90
31967;DHT22;18496;52.042;6.812;2022-09-30T09:40:30;14.40;99.90
31967;DHT22;18496;52.042;6.812;2022-09-30T09:42:54;14.40;99.90
31967;DHT22;18496;52.042;6.812;2022-09-30T09:45:15;14.50;99.90
31967;DHT22;18496;52.042;6.812;2022-09-30T09:47:23;14.60;99.90
31967;DHT22;18496;52.042;6.812;2022-09-30T09:49:38;14.60;99.90
31967;DHT22;18496;52.042;6.812;2022-09-30T09:51:42;14.70;99.90
31967;DHT22;18496;52.042;6.812;2022-09-30T09:53:50;14.80;99.90
31967;DHT22;18496;52.042;6.812;2022-09-30T09:55:55;14.80;99.90
31967;DHT22;18496;52.042;6.812;2022-09-30T10:00:09;14.90;99.90
31967;DHT22;18496;52.042;6.812;2022-09-30T10:02:32;15.00;99.90
31967;DHT22;18496;52.042;6.812;2022-09-30T10:04:36;15.00;99.90
31967;DHT22;18496;52.042;6.812;2022-09-30T10:08:56;15.10;99.90
31967;DHT22;18496;52.042;6.812;2022-09-30T10:11:01;15.20;99.90
31967;DHT22;18496;52.042;6.812;2022-09-30T10:13:12;15.30;99.90
31967;DHT22;18496;52.042;6.812;2022-09-30T10:15:22;15.30;99.90
31967;DHT22;18496;52.042;6.812;2022-09-30T10:31:02;15.70;99.90
31967;DHT22;18496;52.042;6.812;2022-09-30T10:34:20;15.70;99.90
31967;DHT22;18496;52.042;6.812;2022-09-30T10:36:28;15.80;99.90
31967;DHT22;18496;52.042;6.812;2022-09-30T10:38:36;15.80;99.90
31967;DHT22;18496;52.042;6.812;2022-09-30T10:40:48;15.90;99.90
31967;DHT22;18496;52.042;6.812;2022-09-30T10:42:52;15.90;99.80
31967;DHT22;18496;52.042;6.812;2022-09-30T10:45:04;16.00;99.90
31967;DHT22;18496;52.042;6.812;2022-09-30T10:47:13;16.10;99.90
31967;DHT22;18496;52.042;6.812;2022-09-30T10:51:25;16.20;99.90
31967;DHT22;18496;52.042;6.812;2022-09-30T10:53:31;16.20;99.90
31967;DHT22;18496;52.042;6.812;2022-09-30T10:55:42;16.30;99.90
31967;DHT22;18496;52.042;6.812;2022-09-30T10:57:46;16.40;99.20
31967;DHT22;18496;52.042;6.812;2022-09-30T10:59:51;16.40;98.70
31967;DHT22;18496;52.042;6.812;2022-09-30T11:04:31;16.50;98.30
31967;DHT22;18496;52.042;6.812;2022-09-30T11:06:38;16.50;98.30
31967;DHT22;18496;52.042;6.812;2022-09-30T11:11:17;16.60;98.20
31967;DHT22;18496;52.042;6.812;2022-09-30T11:13:23;16.70;98.20
31967;DHT22;18496;52.042;6.812;2022-09-30T11:15:36;16.70;98.00
31967;DHT22;18496;52.042;6.812;2022-09-30T11:17:48;16.80;96.90
31967;DHT22;18496;52.042;6.812;2022-09-30T11:19:56;16.80;96.60
31967;DHT22;18496;52.042;6.812;2022-09-30T11:30:47;16.90;96.50
31967;DHT22;18496;52.042;6.812;2022-09-30T11:37:28;17.00;96.00
31967;DHT22;18496;52.042;6.812;2022-09-30T11:41:38;17.10;96.50
31967;DHT22;18496;52.042;6.812;2022-09-30T11:45:58;17.30;96.40
31967;DHT22;18496;52.042;6.812;2022-09-30T11:50:27;17.60;94.40
31967;DHT22;18496;52.042;6.812;2022-09-30T11:56:55;17.80;93.80
31967;DHT22;18496;52.042;6.812;2022-09-30T11:59:02;17.90;93.80
31967;DHT22;18496;52.042;6.812;2022-09-30T12:03:29;17.90;93.90
31967;DHT22;18496;52.042;6.812;2022-09-30T12:05:57;18.00;94.20
31967;DHT22;18496;52.042;6.812;2022-09-30T12:08:05;18.10;93.80
31967;DHT22;18496;52.042;6.812;2022-09-30T12:10:24;18.20;93.90
31967;DHT22;18496;52.042;6.812;2022-09-30T12:12:31;18.30;93.50
31967;DHT22;18496;52.042;6.812;2022-09-30T12:16:55;18.30;93.30
31967;DHT22;18496;52.042;6.812;2022-09-30T12:19:14;18.40;93.40
31967;DHT22;18496;52.042;6.812;2022-09-30T12:21:19;18.40;93.10
31967;DHT22;18496;52.042;6.812;2022-09-30T12:23:38;18.40;92.80
31967;DHT22;18496;52.042;6.812;2022-09-30T12:25:45;18.50;92.50
31967;DHT22;18496;52.042;6.812;2022-09-30T12:28:01;18.50;92.60
31967;DHT22;18496;52.042;6.812;2022-09-30T12:30:26;18.60;92.40
31967;DHT22;18496;52.042;6.812;2022-09-30T12:32:41;18.60;92.30
31967;DHT22;18496;52.042;6.812;2022-09-30T12:46:03;18.90;90.30
31967;DHT22;18496;52.042;6.812;2022-09-30T12:48:14;18.90;90.10
31967;DHT22;18496;52.042;6.812;2022-09-30T12:50:26;19.00;90.40
31967;DHT22;18496;52.042;6.812;2022-09-30T12:52:31;18.90;90.40
31967;DHT22;18496;52.042;6.812;2022-09-30T12:54:38;19.00;90.90
31967;DHT22;18496;52.042;6.812;2022-09-30T12:56:51;19.10;90.90
31967;DHT22;18496;52.042;6.812;2022-09-30T12:58:55;19.20;89.00
31967;DHT22;18496;52.042;6.812;2022-09-30T13:01:10;19.20;88.40
31967;DHT22;18496;52.042;6.812;2022-09-30T13:03:17;19.10;89.70
31967;DHT22;18496;52.042;6.812;2022-09-30T13:07:33;19.10;89.90
31967;DHT22;18496;52.042;6.812;2022-09-30T13:09:54;19.10;90.20
31967;DHT22;18496;52.042;6.812;2022-09-30T13:16:14;19.30;89.20
31967;DHT22;18496;52.042;6.812;2022-09-30T13:23:10;19.20;90.50
31967;DHT22;18496;52.042;6.812;2022-09-30T13:25:52;19.20;90.50
31967;DHT22;18496;52.042;6.812;2022-09-30T13:28:25;19.20;90.30
31967;DHT22;18496;52.042;6.812;2022-09-30T13:30:32;19.20;89.90
31967;DHT22;18496;52.042;6.812;2022-09-30T13:32:36;19.20;89.80
31967;DHT22;18496;52.042;6.812;2022-09-30T13:34:47;19.20;90.00
31967;DHT22;18496;52.042;6.812;2022-09-30T13:39:56;19.20;88.70
31967;DHT22;18496;52.042;6.812;2022-09-30T13:41:28;19.20;89.50
31967;DHT22;18496;52.042;6.812;2022-09-30T13:45:35;19.20;89.70
31967;DHT22;18496;52.042;6.812;2022-09-30T13:47:42;19.30;88.90
31967;DHT22;18496;52.042;6.812;2022-09-30T13:49:57;19.40;88.90
31967;DHT22;18496;52.042;6.812;2022-09-30T13:52:02;19.40;87.70
31967;DHT22;18496;52.042;6.812;2022-09-30T13:54:28;19.40;87.90
31967;DHT22;18496;52.042;6.812;2022-09-30T13:56:35;19.50;87.50
31967;DHT22;18496;52.042;6.812;2022-09-30T13:59:01;19.40;86.60
31967;DHT22;18496;52.042;6.812;2022-09-30T14:03:19;19.50;88.40
31967;DHT22;18496;52.042;6.812;2022-09-30T14:16:34;19.50;86.40
31967;DHT22;18496;52.042;6.812;2022-09-30T14:20:54;19.40;87.20
31967;DHT22;18496;52.042;6.812;2022-09-30T14:23:01;19.50;88.30
31967;DHT22;18496;52.042;6.812;2022-09-30T14:25:10;19.50;87.20
31967;DHT22;18496;52.042;6.812;2022-09-30T14:27:30;19.50;87.40
31967;DHT22;18496;52.042;6.812;2022-09-30T14:31:52;19.40;87.50
31967;DHT22;18496;52.042;6.812;2022-09-30T14:33:57;19.40;86.50
31967;DHT22;18496;52.042;6.812;2022-09-30T14:36:01;19.40;87.30
31967;DHT22;18496;52.042;6.812;2022-09-30T14:38:13;19.30;86.90
31967;DHT22;18496;52.042;6.812;2022-09-30T14:40:27;19.30;86.90
31967;DHT22;18496;52.042;6.812;2022-09-30T14:42:34;19.30;87.00
31967;DHT22;18496;52.042;6.812;2022-09-30T14:44:40;19.30;88.40
31967;DHT22;18496;52.042;6.812;2022-09-30T14:46:44;19.40;87.90
31967;DHT22;18496;52.042;6.812;2022-09-30T14:48:49;19.50;87.50
31967;DHT22;18496;52.042;6.812;2022-09-30T14:52:59;19.50;86.70
31967;DHT22;18496;52.042;6.812;2022-09-30T14:55:15;19.50;86.30
31967;DHT22;18496;52.042;6.812;2022-09-30T14:57:22;19.50;87.20
31967;DHT22;18496;52.042;6.812;2022-09-30T14:59:30;19.60;87.80
31967;DHT22;18496;52.042;6.812;2022-09-30T15:01:43;19.70;86.30
31967;DHT22;18496;52.042;6.812;2022-09-30T15:03:52;19.80;86.20
31967;DHT22;18496;52.042;6.812;2022-09-30T15:05:57;19.80;84.80
31967;DHT22;18496;52.042;6.812;2022-09-30T15:08:01;19.80;84.50
31967;DHT22;18496;52.042;6.812;2022-09-30T15:10:18;19.80;83.40
31967;DHT22;18496;52.042;6.812;2022-09-30T15:12:22;19.70;84.30
31967;DHT22;18496;52.042;6.812;2022-09-30T15:14:27;19.70;84.30
31967;DHT22;18496;52.042;6.812;2022-09-30T15:16:32;19.50;85.20
31967;DHT22;18496;52.042;6.812;2022-09-30T15:18:48;19.60;84.80
31967;DHT22;18496;52.042;6.812;2022-09-30T15:20:52;19.50;85.00
31967;DHT22;18496;52.042;6.812;2022-09-30T15:23:05;19.50;84.20
31967;DHT22;18496;52.042;6.812;2022-09-30T15:25:20;19.50;84.40
31967;DHT22;18496;52.042;6.812;2022-09-30T15:27:27;19.50;85.00
31967;DHT22;18496;52.042;6.812;2022-09-30T15:29:30;19.50;84.80
31967;DHT22;18496;52.042;6.812;2022-09-30T15:31:34;19.60;85.00
31967;DHT22;18496;52.042;6.812;2022-09-30T15:34:18;19.70;85.20
31967;DHT22;18496;52.042;6.812;2022-09-30T15:36:22;19.80;84.90
31967;DHT22;18496;52.042;6.812;2022-09-30T15:38:26;19.90;85.10
31967;DHT22;18496;52.042;6.812;2022-09-30T15:40:31;20.00;84.20
31967;DHT22;18496;52.042;6.812;2022-09-30T15:42:55;20.10;83.70
31967;DHT22;18496;52.042;6.812;2022-09-30T15:47:51;20.10;80.80
31967;DHT22;18496;52.042;6.812;2022-09-30T15:49:48;20.10;81.70
31967;DHT22;18496;52.042;6.812;2022-09-30T15:54:28;20.00;81.90
31967;DHT22;18496;52.042;6.812;2022-09-30T15:56:35;19.90;81.90
31967;DHT22;18496;52.042;6.812;2022-09-30T15:58:39;19.80;81.80
31967;DHT22;18496;52.042;6.812;2022-09-30T16:00:46;19.80;81.80
31967;DHT22;18496;52.042;6.812;2022-09-30T16:03:21;19.70;82.30
31967;DHT22;18496;52.042;6.812;2022-09-30T16:05:26;19.60;82.90
31967;DHT22;18496;52.042;6.812;2022-09-30T16:07:29;19.50;82.90
31967;DHT22;18496;52.042;6.812;2022-09-30T16:09:38;19.40;82.80